createdAt,value
2022-11-19T00:00:42.880Z,47.44
2022-11-19T00:03:09.233Z,47.12
2022-11-19T00:05:39.099Z,47.30
2022-11-19T00:08:05.451Z,47.41
2022-11-19T00:10:33.352Z,47.16
2022-11-19T00:12:59.682Z,47.45
2022-11-19T00:15:26.027Z,47.23
2022-11-19T00:17:52.347Z,47.46
2022-11-19T00:20:18.692Z,47.39
2022-11-19T00:22:45.409Z,47.54
2022-11-19T00:25:11.725Z,47.57
2022-11-19T00:27:38.043Z,47.70
2022-11-19T00:30:10.948Z,47.30
2022-11-19T00:32:46.545Z,47.34
2022-11-19T00:35:12.947Z,47.36
2022-11-19T00:37:39.278Z,47.33
2022-11-19T00:40:07.763Z,47.63
2022-11-19T00:42:37.060Z,47.54
2022-11-19T00:45:03.390Z,47.67
2022-11-19T00:47:29.718Z,47.46
2022-11-19T00:49:56.323Z,47.17
2022-11-19T00:52:22.649Z,47.28
2022-11-19T00:54:48.964Z,47.21
2022-11-19T00:57:15.296Z,47.48
2022-11-19T00:59:41.604Z,47.38
2022-11-19T01:02:07.937Z,47.37
2022-11-19T01:04:34.344Z,47.30
2022-11-19T01:07:00.722Z,47.25
2022-11-19T01:09:29.365Z,47.40
2022-11-19T01:11:55.675Z,47.58
2022-11-19T01:14:21.999Z,47.31
2022-11-19T01:16:48.339Z,47.15
2022-11-19T01:19:16.513Z,47.39
2022-11-19T01:21:43.173Z,47.42
2022-11-19T01:24:09.498Z,47.29
2022-11-19T01:26:35.849Z,47.37
2022-11-19T01:29:03.174Z,47.11
2022-11-19T01:31:29.549Z,47.36
2022-11-19T01:33:55.873Z,47.34
2022-11-19T01:36:22.951Z,47.09
2022-11-19T01:38:52.254Z,47.22
2022-11-19T01:41:18.947Z,46.93
2022-11-19T01:43:46.322Z,47.38
2022-11-19T01:46:13.176Z,47.28
2022-11-19T01:48:40.738Z,47.13
2022-11-19T01:51:15.792Z,47.25
2022-11-19T01:53:49.344Z,47.28
2022-11-19T01:56:15.793Z,47.05
2022-11-19T01:58:46.123Z,47.12
2022-11-19T02:01:15.619Z,47.48
2022-11-19T02:03:42.102Z,47.02
2022-11-19T02:06:10.694Z,47.28
2022-11-19T02:08:43.761Z,47.39
2022-11-19T02:11:17.899Z,47.10
2022-11-19T02:13:49.522Z,46.91
2022-11-19T02:16:25.708Z,47.08
2022-11-19T02:18:55.876Z,47.01
2022-11-19T02:21:27.625Z,47.08
2022-11-19T02:24:00.867Z,47.23
2022-11-19T02:26:29.786Z,47.00
2022-11-19T02:29:10.777Z,47.36
2022-11-19T02:31:41.193Z,46.91
2022-11-19T02:34:12.351Z,46.98
2022-11-19T02:36:48.543Z,47.23
2022-11-19T02:39:15.838Z,47.07
2022-11-19T02:41:44.810Z,47.06
2022-11-19T02:44:29.914Z,46.97
2022-11-19T02:46:56.232Z,46.93
2022-11-19T02:49:23.498Z,46.88
2022-11-19T02:51:49.846Z,46.90
2022-11-19T02:54:16.503Z,47.09
2022-11-19T02:56:47.224Z,46.87
2022-11-19T02:59:32.201Z,47.14
2022-11-19T03:02:17.513Z,46.99
2022-11-19T03:04:43.843Z,46.84
2022-11-19T03:07:14.071Z,47.03
2022-11-19T03:09:41.819Z,47.10
2022-11-19T03:12:18.334Z,47.21
2022-11-19T03:15:06.862Z,47.08
2022-11-19T03:17:40.302Z,47.01
2022-11-19T03:20:06.680Z,47.15
2022-11-19T03:22:34.443Z,47.12
2022-11-19T03:25:06.107Z,46.83
2022-11-19T03:27:39.061Z,47.17
2022-11-19T03:30:05.664Z,46.78
2022-11-19T03:32:34.795Z,46.72
2022-11-19T03:35:01.978Z,46.80
2022-11-19T03:37:28.413Z,46.66
2022-11-19T03:39:55.760Z,46.93
2022-11-19T03:42:22.146Z,47.11
2022-11-19T03:44:49.784Z,46.67
2022-11-19T03:47:16.813Z,46.79
2022-11-19T03:49:44.524Z,46.68
2022-11-19T03:52:11.653Z,46.84
2022-11-19T03:54:38.199Z,46.71
2022-11-19T03:57:05.228Z,46.83
2022-11-19T03:59:31.540Z,47.06
2022-11-19T04:01:58.672Z,46.74
2022-11-19T04:04:37.307Z,46.52
2022-11-19T04:07:04.505Z,46.78
2022-11-19T04:09:30.863Z,46.89
2022-11-19T04:11:57.177Z,47.03
2022-11-19T04:14:23.514Z,46.85
2022-11-19T04:16:49.832Z,46.70
2022-11-19T04:19:18.052Z,46.64
2022-11-19T04:21:44.611Z,46.79
2022-11-19T04:24:10.949Z,46.83
2022-11-19T04:26:37.271Z,46.82
2022-11-19T04:29:03.596Z,46.57
2022-11-19T04:31:30.064Z,46.72
2022-11-19T04:33:56.396Z,46.42
2022-11-19T04:36:22.755Z,46.67
2022-11-19T04:38:49.090Z,46.53
2022-11-19T04:41:15.420Z,46.60
2022-11-19T04:43:41.740Z,46.65
2022-11-19T04:46:08.049Z,46.82
2022-11-19T04:48:34.381Z,46.46
2022-11-19T04:51:00.707Z,46.44
2022-11-19T04:53:27.036Z,46.87
2022-11-19T04:55:53.340Z,46.57
2022-11-19T04:58:19.659Z,46.47
2022-11-19T05:00:45.969Z,46.67
2022-11-19T05:03:12.292Z,46.87
2022-11-19T05:05:38.614Z,46.66
2022-11-19T05:08:05.002Z,46.46
2022-11-19T05:10:31.320Z,46.65
2022-11-19T05:12:57.653Z,46.64
2022-11-19T05:15:23.964Z,46.48
2022-11-19T05:17:50.293Z,46.62
2022-11-19T05:20:16.609Z,46.44
2022-11-19T05:22:42.937Z,46.41
2022-11-19T05:25:09.304Z,46.71
2022-11-19T05:27:35.619Z,46.38
2022-11-19T05:30:01.946Z,46.30
2022-11-19T05:32:28.276Z,46.32
2022-11-19T05:34:54.621Z,46.67
2022-11-19T05:37:20.980Z,46.61
2022-11-19T05:39:47.291Z,46.55
2022-11-19T05:42:13.595Z,46.49
2022-11-19T05:44:39.912Z,46.45
2022-11-19T05:47:06.259Z,46.80
2022-11-19T05:49:32.577Z,46.67
2022-11-19T05:51:58.889Z,46.58
2022-11-19T05:54:25.238Z,46.24
2022-11-19T05:56:51.605Z,46.29
2022-11-19T05:59:18.325Z,46.46
2022-11-19T06:01:44.850Z,46.63
2022-11-19T06:04:11.203Z,46.36
2022-11-19T06:06:37.606Z,46.34
2022-11-19T06:09:03.939Z,45.12
2022-11-19T06:11:48.630Z,44.50
2022-11-19T06:14:15.098Z,44.58
2022-11-19T06:16:41.421Z,45.55
2022-11-19T06:19:07.758Z,45.81
2022-11-19T06:21:34.084Z,45.56
2022-11-19T06:24:00.407Z,45.90
2022-11-19T06:26:27.417Z,45.97
2022-11-19T06:28:53.773Z,46.33
2022-11-19T06:31:20.220Z,46.17
2022-11-19T06:33:46.554Z,46.24
2022-11-19T06:36:13.873Z,46.00
2022-11-19T06:38:40.397Z,46.21
2022-11-19T06:41:06.714Z,46.36
2022-11-19T06:43:33.048Z,46.20
2022-11-19T06:45:59.363Z,46.15
2022-11-19T06:48:25.795Z,46.20
2022-11-19T06:50:52.145Z,45.91
2022-11-19T06:53:18.480Z,46.06
2022-11-19T06:55:44.807Z,46.10
2022-11-19T06:58:11.137Z,45.88
2022-11-19T07:00:37.448Z,45.84
2022-11-19T07:03:03.792Z,45.80
2022-11-19T07:05:30.104Z,45.89
2022-11-19T07:08:01.536Z,45.72
2022-11-19T07:10:29.460Z,46.06
2022-11-19T07:12:55.837Z,45.76
2022-11-19T07:15:22.199Z,45.70
2022-11-19T07:17:48.839Z,46.02
2022-11-19T07:20:15.303Z,46.03
2022-11-19T07:22:42.313Z,46.11
2022-11-19T07:25:09.400Z,46.09
2022-11-19T07:27:35.724Z,45.99
2022-11-19T07:30:04.131Z,45.96
2022-11-19T07:32:30.458Z,46.15
2022-11-19T07:34:56.796Z,45.97
2022-11-19T07:37:23.105Z,46.46
2022-11-19T07:39:49.425Z,46.00
2022-11-19T07:42:34.505Z,45.66
2022-11-19T07:45:07.703Z,45.79
2022-11-19T07:47:34.310Z,45.33
2022-11-19T07:50:00.640Z,46.19
2022-11-19T07:52:26.975Z,46.32
2022-11-19T07:54:53.296Z,46.26
2022-11-19T07:57:19.752Z,45.71
2022-11-19T07:59:46.096Z,46.07
2022-11-19T08:02:12.524Z,47.47
2022-11-19T08:04:39.066Z,46.94
2022-11-19T08:07:05.460Z,45.80
2022-11-19T08:09:32.444Z,46.04
2022-11-19T08:11:58.767Z,46.16
2022-11-19T08:14:25.100Z,46.09
2022-11-19T08:17:10.036Z,45.13
2022-11-19T08:19:36.503Z,44.61
2022-11-19T08:22:02.833Z,44.81
2022-11-19T08:24:29.418Z,41.43
2022-11-19T08:26:55.787Z,41.83
2022-11-19T08:29:23.689Z,44.60
2022-11-19T08:31:50.023Z,44.24
2022-11-19T08:34:16.441Z,43.81
2022-11-19T08:36:43.305Z,44.20
2022-11-19T08:39:09.649Z,44.55
2022-11-19T08:41:54.576Z,44.88
2022-11-19T08:44:21.193Z,45.09
2022-11-19T08:46:47.907Z,45.55
2022-11-19T08:49:14.247Z,45.43
2022-11-19T08:51:40.606Z,45.64
2022-11-19T08:54:06.957Z,45.97
2022-11-19T08:56:33.303Z,45.69
2022-11-19T08:59:02.769Z,45.64
2022-11-19T09:01:29.420Z,45.67
2022-11-19T09:03:55.750Z,45.96
2022-11-19T09:06:22.070Z,45.95
2022-11-19T09:08:48.418Z,45.82
2022-11-19T09:11:15.496Z,45.76
2022-11-19T09:13:41.826Z,43.84
2022-11-19T09:16:08.443Z,44.77
2022-11-19T09:18:38.920Z,44.90
2022-11-19T09:21:05.545Z,45.73
2022-11-19T09:23:31.890Z,45.63
2022-11-19T09:26:01.730Z,45.60
2022-11-19T09:28:28.059Z,45.72
2022-11-19T09:30:55.373Z,46.31
2022-11-19T09:33:21.719Z,45.99
2022-11-19T09:35:48.037Z,39.71
2022-11-19T09:38:14.354Z,40.77
2022-11-19T09:40:43.679Z,41.13
2022-11-19T09:43:28.716Z,43.25
2022-11-19T09:46:03.700Z,44.12
2022-11-19T09:48:34.057Z,44.24
2022-11-19T09:51:01.605Z,45.05
2022-11-19T09:53:31.918Z,45.07
2022-11-19T09:55:59.102Z,45.41
2022-11-19T09:58:26.487Z,45.42
2022-11-19T10:00:52.905Z,45.68
2022-11-19T10:03:22.778Z,45.87
2022-11-19T10:06:07.263Z,45.89
2022-11-19T10:08:36.085Z,45.77
2022-11-19T10:11:21.268Z,46.00
2022-11-19T10:14:00.156Z,45.84
2022-11-19T10:16:36.572Z,45.85
2022-11-19T10:19:06.483Z,45.98
2022-11-19T10:21:35.517Z,46.05
2022-11-19T10:24:18.403Z,46.21
2022-11-19T10:26:47.145Z,45.98
2022-11-19T10:29:17.710Z,46.04
2022-11-19T10:31:44.946Z,45.96
2022-11-19T10:34:15.128Z,45.96
2022-11-19T10:36:52.130Z,46.14
2022-11-19T10:39:36.973Z,46.45
2022-11-19T10:42:08.049Z,46.34
2022-11-19T10:44:57.348Z,46.37
2022-11-19T10:47:44.315Z,46.41
2022-11-19T10:50:20.734Z,46.90
2022-11-19T10:52:51.922Z,46.93
2022-11-19T10:55:20.998Z,47.17
2022-11-19T10:57:47.328Z,46.90
2022-11-19T11:00:13.981Z,45.82
2022-11-19T11:03:02.956Z,44.17
2022-11-19T11:05:29.327Z,43.81
2022-11-19T11:07:56.945Z,44.75
2022-11-19T11:10:33.862Z,45.00
2022-11-19T11:13:38.007Z,45.16
2022-11-19T11:16:05.340Z,45.13
2022-11-19T11:18:31.721Z,45.26
2022-11-19T11:20:58.068Z,45.58
2022-11-19T11:23:24.761Z,45.41
2022-11-19T11:26:09.913Z,45.66
2022-11-19T11:28:36.306Z,45.56
2022-11-19T11:31:03.527Z,45.80
2022-11-19T11:33:53.922Z,45.84
2022-11-19T11:36:20.740Z,45.86
2022-11-19T11:38:47.644Z,45.64
2022-11-19T11:42:02.402Z,45.71
2022-11-19T11:44:17.955Z,45.81
2022-11-19T11:46:51.205Z,45.91
2022-11-19T11:49:20.435Z,45.86
2022-11-19T11:51:46.865Z,45.76
2022-11-19T11:54:18.294Z,45.68
2022-11-19T11:56:44.964Z,45.96
2022-11-19T11:59:15.400Z,45.98
2022-11-19T12:01:42.234Z,45.80
2022-11-19T12:04:11.401Z,45.73
2022-11-19T12:06:41.572Z,45.71
2022-11-19T12:09:17.269Z,45.95
2022-11-19T12:11:55.163Z,45.94
2022-11-19T12:14:21.404Z,46.12
2022-11-19T12:17:02.797Z,46.19
2022-11-19T12:19:32.937Z,46.38
2022-11-19T12:22:04.167Z,45.87
2022-11-19T12:24:36.463Z,46.45
2022-11-19T12:27:07.307Z,46.34
2022-11-19T12:29:45.609Z,46.71
2022-11-19T12:32:31.116Z,46.74
2022-11-19T12:35:16.064Z,46.77
2022-11-19T12:37:42.390Z,46.34
2022-11-19T12:40:20.733Z,46.39
2022-11-19T12:42:49.319Z,46.52
2022-11-19T12:45:36.765Z,46.35
2022-11-19T12:48:15.376Z,46.53
2022-11-19T12:51:00.504Z,46.46
2022-11-19T12:53:32.679Z,46.64
2022-11-19T12:56:08.706Z,46.47
2022-11-19T12:58:34.944Z,46.41
2022-11-19T13:01:03.790Z,46.43
2022-11-19T13:03:48.903Z,46.38
2022-11-19T13:06:19.658Z,46.64
2022-11-19T13:08:53.877Z,46.41
2022-11-19T13:11:21.656Z,46.41
2022-11-19T13:13:48.824Z,46.57
2022-11-19T13:16:16.031Z,46.59
2022-11-19T13:18:43.244Z,46.59
2022-11-19T13:21:28.260Z,46.60
2022-11-19T13:23:54.570Z,46.68
2022-11-19T13:26:23.118Z,46.78
2022-11-19T13:28:54.265Z,46.78
2022-11-19T13:31:28.144Z,46.87
2022-11-19T13:33:59.477Z,46.65
2022-11-19T13:36:27.760Z,46.84
2022-11-19T13:38:58.605Z,46.86
2022-11-19T13:41:27.849Z,46.77
2022-11-19T13:44:13.954Z,46.81
2022-11-19T13:46:47.357Z,46.86
2022-11-19T13:49:16.632Z,46.63
2022-11-19T13:51:44.273Z,46.99
2022-11-19T13:54:21.393Z,46.84
2022-11-19T13:56:48.387Z,46.85
2022-11-19T13:59:26.881Z,46.87
2022-11-19T14:02:00.135Z,46.84
2022-11-19T14:04:32.431Z,46.76
2022-11-19T14:07:04.745Z,47.06
2022-11-19T14:09:42.930Z,46.82
2022-11-19T14:12:17.324Z,46.79
2022-11-19T14:15:15.656Z,47.11
2022-11-19T14:18:18.445Z,46.88
2022-11-19T14:21:03.696Z,46.92
2022-11-19T14:24:06.993Z,47.02
2022-11-19T14:26:42.274Z,47.10
2022-11-19T14:29:28.773Z,46.87
2022-11-19T14:32:01.137Z,46.94
2022-11-19T14:34:28.207Z,47.00
2022-11-19T14:36:54.885Z,47.07
2022-11-19T14:39:23.637Z,46.97
2022-11-19T14:42:10.006Z,46.97
2022-11-19T14:44:36.331Z,47.13
2022-11-19T14:47:21.530Z,46.96
2022-11-19T14:49:47.848Z,47.08
2022-11-19T14:52:19.594Z,47.07
2022-11-19T14:54:45.957Z,47.04
2022-11-19T14:57:25.935Z,46.84
2022-11-19T14:59:53.512Z,47.07
2022-11-19T15:02:24.439Z,46.76
2022-11-19T15:04:52.377Z,47.05
2022-11-19T15:07:33.713Z,46.82
2022-11-19T15:10:08.992Z,46.58
2022-11-19T15:12:41.009Z,46.99
2022-11-19T15:15:19.498Z,46.92
2022-11-19T15:18:02.349Z,46.50
2022-11-19T15:20:32.515Z,46.89
2022-11-19T15:23:17.587Z,46.51
2022-11-19T15:25:43.846Z,46.18
2022-11-19T15:28:39.300Z,46.67
2022-11-19T15:31:11.130Z,46.35
2022-11-19T15:33:40.411Z,46.48
2022-11-19T15:36:25.534Z,46.20
2022-11-19T15:38:56.986Z,46.39
2022-11-19T15:41:23.616Z,46.57
2022-11-19T15:43:51.775Z,46.60
2022-11-19T15:46:33.733Z,46.37
2022-11-19T15:49:20.826Z,46.42
2022-11-19T15:51:58.916Z,46.39
2022-11-19T15:54:29.675Z,46.40
2022-11-19T15:56:57.358Z,46.56
2022-11-19T15:59:23.748Z,46.64
2022-11-19T16:01:57.294Z,46.61
2022-11-19T16:04:23.760Z,46.31
2022-11-19T16:06:50.446Z,46.24
2022-11-19T16:09:18.185Z,46.47
2022-11-19T16:12:03.579Z,46.70
2022-11-19T16:14:48.661Z,46.73
2022-11-19T16:17:39.940Z,46.57
2022-11-19T16:20:09.597Z,46.95
2022-11-19T16:22:37.561Z,46.42
2022-11-19T16:25:05.154Z,46.75
2022-11-19T16:27:31.800Z,46.50
2022-11-19T16:29:58.114Z,46.85
2022-11-19T16:32:24.687Z,46.89
2022-11-19T16:34:50.993Z,46.79
2022-11-19T16:37:18.972Z,46.93
2022-11-19T16:39:48.731Z,46.96
2022-11-19T16:42:18.893Z,46.96
2022-11-19T16:44:45.654Z,47.06
2022-11-19T16:47:21.550Z,47.06
2022-11-19T16:49:47.810Z,47.01
2022-11-19T16:52:32.379Z,46.36
2022-11-19T16:54:59.046Z,45.90
2022-11-19T16:57:25.821Z,45.67
2022-11-19T16:59:52.736Z,46.50
2022-11-19T17:02:19.314Z,46.85
2022-11-19T17:04:46.251Z,47.02
2022-11-19T17:07:14.354Z,46.93
2022-11-19T17:09:42.275Z,47.26
2022-11-19T17:12:25.044Z,46.99
2022-11-19T17:14:52.416Z,47.04
2022-11-19T17:17:29.023Z,45.08
2022-11-19T17:19:57.405Z,44.68
2022-11-19T17:22:26.700Z,44.83
2022-11-19T17:24:53.035Z,45.73
2022-11-19T17:27:29.297Z,45.91
2022-11-19T17:30:02.781Z,46.15
2022-11-19T17:32:33.080Z,46.28
2022-11-19T17:34:59.425Z,46.27
2022-11-19T17:37:25.758Z,46.43
2022-11-19T17:39:52.094Z,46.51
2022-11-19T17:42:37.176Z,46.52
2022-11-19T17:45:09.179Z,46.40
2022-11-19T17:47:37.021Z,46.67
2022-11-19T17:50:03.371Z,46.71
2022-11-19T17:52:30.349Z,46.52
2022-11-19T17:55:10.277Z,46.71
2022-11-19T17:57:42.369Z,46.50
2022-11-19T18:00:09.424Z,46.72
2022-11-19T18:02:36.074Z,46.50
2022-11-19T18:05:02.455Z,46.66
2022-11-19T18:07:28.817Z,46.59
2022-11-19T18:09:55.216Z,46.65
2022-11-19T18:12:21.569Z,46.62
2022-11-19T18:14:47.891Z,46.70
2022-11-19T18:17:14.511Z,46.62
2022-11-19T18:19:40.890Z,46.68
2022-11-19T18:22:09.932Z,46.83
2022-11-19T18:24:36.303Z,46.84
2022-11-19T18:27:02.659Z,46.64
2022-11-19T18:29:30.097Z,46.81
2022-11-19T18:31:56.444Z,46.73
2022-11-19T18:34:23.129Z,46.92
2022-11-19T18:36:49.529Z,46.99
2022-11-19T18:39:15.853Z,46.80
2022-11-19T18:41:42.169Z,46.79
2022-11-19T18:44:33.414Z,46.90
2022-11-19T18:47:06.753Z,46.96
2022-11-19T18:49:36.105Z,46.82
2022-11-19T18:52:02.793Z,46.83
2022-11-19T18:54:29.130Z,46.82
2022-11-19T18:56:55.471Z,47.03
2022-11-19T18:59:22.061Z,46.76
2022-11-19T19:01:48.702Z,46.73
2022-11-19T19:04:15.160Z,47.06
2022-11-19T19:06:41.550Z,46.63
2022-11-19T19:09:08.121Z,46.99
2022-11-19T19:11:53.274Z,46.97
2022-11-19T19:14:19.596Z,46.78
2022-11-19T19:16:53.265Z,46.65
2022-11-19T19:19:20.842Z,46.70
2022-11-19T19:21:47.449Z,46.40
2022-11-19T19:24:13.837Z,46.91
2022-11-19T19:26:40.181Z,47.57
2022-11-19T19:29:06.627Z,47.42
2022-11-19T19:31:32.949Z,47.96
2022-11-19T19:33:59.297Z,47.63
2022-11-19T19:36:25.647Z,47.70
2022-11-19T19:38:51.961Z,47.37
2022-11-19T19:41:18.310Z,47.18
2022-11-19T19:43:44.688Z,47.27
2022-11-19T19:46:16.150Z,47.37
2022-11-19T19:48:42.809Z,47.43
2022-11-19T19:51:09.128Z,46.77
2022-11-19T19:53:37.737Z,46.65
2022-11-19T19:56:04.243Z,46.62
2022-11-19T19:58:30.650Z,45.21
2022-11-19T20:01:06.829Z,44.76
2022-11-19T20:03:33.184Z,44.91
2022-11-19T20:05:59.502Z,45.02
2022-11-19T20:08:25.855Z,45.44
2022-11-19T20:10:52.238Z,46.31
2022-11-19T20:13:27.697Z,46.73
2022-11-19T20:15:56.992Z,46.93
2022-11-19T20:18:23.573Z,46.84
2022-11-19T20:20:49.914Z,47.01
2022-11-19T20:23:16.247Z,47.24
2022-11-19T20:25:42.653Z,47.39
2022-11-19T20:28:08.983Z,47.04
2022-11-19T20:30:35.300Z,47.08
2022-11-19T20:33:01.746Z,47.11
2022-11-19T20:35:29.087Z,46.90
2022-11-19T20:38:00.816Z,46.86
2022-11-19T20:40:29.767Z,46.86
2022-11-19T20:43:14.809Z,46.72
2022-11-19T20:45:41.271Z,47.01
2022-11-19T20:48:07.802Z,46.90
2022-11-19T20:50:34.499Z,46.77
2022-11-19T20:53:01.953Z,46.81
2022-11-19T20:55:28.498Z,46.77
2022-11-19T20:57:55.528Z,47.06
2022-11-19T21:00:22.151Z,46.71
2022-11-19T21:02:48.665Z,46.67
2022-11-19T21:05:15.217Z,46.90
2022-11-19T21:07:41.788Z,47.18
2022-11-19T21:10:08.555Z,46.99
2022-11-19T21:12:35.083Z,47.05
2022-11-19T21:15:02.120Z,46.83
2022-11-19T21:17:28.515Z,47.11
2022-11-19T21:19:54.832Z,46.87
2022-11-19T21:22:21.136Z,47.08
2022-11-19T21:24:48.637Z,47.02
2022-11-19T21:27:14.949Z,46.99
2022-11-19T21:29:41.661Z,46.96
2022-11-19T21:32:08.218Z,46.98
2022-11-19T21:34:34.541Z,46.95
2022-11-19T21:37:00.859Z,47.05
2022-11-19T21:39:27.218Z,47.28
2022-11-19T21:41:53.568Z,47.13
2022-11-19T21:44:21.945Z,47.38
2022-11-19T21:46:48.560Z,47.51
2022-11-19T21:49:14.937Z,47.40
2022-11-19T21:51:41.380Z,47.40
2022-11-19T21:54:07.696Z,47.35
2022-11-19T21:56:38.560Z,47.47
2022-11-19T21:59:05.535Z,47.53
2022-11-19T22:01:31.865Z,47.66
2022-11-19T22:03:58.193Z,47.68
2022-11-19T22:06:24.503Z,47.74
2022-11-19T22:08:50.870Z,47.66
2022-11-19T22:11:29.126Z,47.83
2022-11-19T22:13:56.207Z,47.82
2022-11-19T22:16:22.572Z,48.06
2022-11-19T22:18:48.887Z,48.21
2022-11-19T22:21:15.190Z,48.10
2022-11-19T22:23:41.517Z,48.30
2022-11-19T22:26:08.184Z,48.27
2022-11-19T22:28:34.618Z,48.30
2022-11-19T22:31:00.996Z,48.37
2022-11-19T22:33:33.618Z,48.42
2022-11-19T22:36:01.827Z,48.35
2022-11-19T22:38:31.455Z,48.29
2022-11-19T22:41:01.160Z,48.37
2022-11-19T22:43:30.243Z,48.26
2022-11-19T22:45:56.547Z,48.18
2022-11-19T22:48:22.934Z,48.06
2022-11-19T22:50:49.249Z,48.16
2022-11-19T22:53:17.153Z,47.99
2022-11-19T22:55:43.463Z,48.03
2022-11-19T22:58:09.776Z,48.11
2022-11-19T23:00:39.222Z,48.02
2022-11-19T23:03:05.568Z,47.90
2022-11-19T23:05:36.851Z,48.00
2022-11-19T23:08:03.886Z,47.97
2022-11-19T23:10:30.237Z,48.20
2022-11-19T23:13:15.135Z,47.97
2022-11-19T23:15:41.554Z,48.14
2022-11-19T23:18:07.896Z,47.97
2022-11-19T23:20:34.237Z,48.08
2022-11-19T23:23:00.566Z,48.05
2022-11-19T23:25:26.895Z,47.97
2022-11-19T23:27:53.222Z,47.98
2022-11-19T23:30:19.570Z,48.19
2022-11-19T23:32:46.035Z,48.36
2022-11-19T23:35:12.355Z,48.30
2022-11-19T23:37:38.663Z,47.81
2022-11-19T23:40:05.131Z,48.16
2022-11-19T23:42:31.487Z,48.07
2022-11-19T23:44:57.819Z,47.96
2022-11-19T23:47:24.203Z,48.03
2022-11-19T23:49:50.534Z,48.17
2022-11-19T23:52:16.865Z,48.06
2022-11-19T23:54:43.453Z,48.14
2022-11-19T23:57:09.817Z,48.01
2022-11-19T23:59:36.192Z,48.21
